Time;durP1;ratioP1;P1;durP2;ratioP2;P2;SDS_P1;SDS_P2;PMS_P1;PMS_P2;Temp;Humidity;BMP_temperature;BMP_pressure;BME280_temperature;BME280_humidity;BME280_pressure;Samples;Min_cycle;Max_cycle;Signal;HPM_P1;HPM_P2
2021/12/12 00:00:49;;;;;;;31.70;23.22;;;21.50;82.30;;;;;;1853089;76;21491;-80
2021/12/12 00:03:32;;;;;;;27.90;21.50;;;21.50;82.20;;;;;;1860950;75;21252;-80
2021/12/12 00:05:56;;;;;;;27.93;22.37;;;21.50;82.10;;;;;;1865931;75;21886;-79
2021/12/12 00:08:28;;;;;;;28.30;20.80;;;21.50;82.00;;;;;;1870172;75;21177;-80
2021/12/12 00:11:01;;;;;;;33.00;20.68;;;21.60;82.00;;;;;;1867852;75;21087;-80
2021/12/12 00:13:34;;;;;;;24.45;20.05;;;21.60;81.80;;;;;;1869805;75;21067;-80
2021/12/12 00:16:07;;;;;;;25.88;18.87;;;21.60;81.70;;;;;;1865222;77;21559;-80
2021/12/12 00:18:38;;;;;;;22.50;18.62;;;21.70;80.90;;;;;;1865448;75;21083;-80
2021/12/12 00:21:12;;;;;;;26.15;18.12;;;21.80;81.40;;;;;;1888060;75;21406;-80
2021/12/12 00:23:43;;;;;;;27.77;19.37;;;21.90;81.00;;;;;;1865387;75;21165;-80
2021/12/12 00:26:15;;;;;;;24.15;18.15;;;21.90;80.60;;;;;;1866644;75;21141;-80
2021/12/12 00:28:47;;;;;;;25.70;19.12;;;21.90;80.40;;;;;;1864177;75;21217;-80
2021/12/12 00:31:20;;;;;;;25.57;19.80;;;22.00;80.30;;;;;;1858769;77;21651;-80
2021/12/12 00:33:54;;;;;;;27.45;19.32;;;22.00;80.10;;;;;;1861597;75;21831;-80
2021/12/12 00:36:28;;;;;;;23.83;19.02;;;22.10;79.90;;;;;;1864665;77;21579;-80
2021/12/12 00:39:01;;;;;;;22.67;18.20;;;22.10;79.70;;;;;;1865214;75;21090;-79
2021/12/12 00:41:35;;;;;;;22.98;17.77;;;22.20;79.40;;;;;;1865044;77;21533;-83
2021/12/12 00:44:07;;;;;;;26.00;19.80;;;22.20;78.50;;;;;;1867587;75;21166;-73
2021/12/12 00:46:39;;;;;;;24.23;18.70;;;22.30;79.00;;;;;;1864817;77;21091;-73
2021/12/12 00:49:11;;;;;;;26.12;18.75;;;22.30;78.60;;;;;;1866432;75;21131;-73
2021/12/12 00:51:44;;;;;;;23.98;19.10;;;22.40;78.70;;;;;;1865154;76;21654;-73
2021/12/12 00:54:17;;;;;;;25.50;18.52;;;22.40;78.40;;;;;;1865286;75;21171;-73
2021/12/12 00:56:49;;;;;;;29.92;19.52;;;22.50;78.20;;;;;;1869596;75;21167;-73
2021/12/12 00:59:20;;;;;;;23.42;18.20;;;22.50;78.20;;;;;;1871849;75;21737;-73
2021/12/12 01:01:52;;;;;;;27.10;19.15;;;22.50;77.50;;;;;;1861974;75;21641;-72
2021/12/12 01:04:26;;;;;;;22.95;18.42;;;22.60;77.70;;;;;;1856574;76;21150;-72
2021/12/12 01:06:59;;;;;;;26.93;19.23;;;22.50;77.70;;;;;;1858012;77;21204;-73
2021/12/12 01:09:32;;;;;;;26.17;18.75;;;22.60;77.40;;;;;;1860495;76;21204;-73
2021/12/12 01:12:05;;;;;;;23.57;19.30;;;22.60;77.10;;;;;;1869729;75;21673;-72
2021/12/12 01:14:41;;;;;;;25.20;18.65;;;22.60;77.10;;;;;;1886998;75;21660;-72
2021/12/12 01:17:13;;;;;;;28.55;19.20;;;22.60;77.00;;;;;;1856637;76;21552;-74
2021/12/12 01:19:50;;;;;;;24.23;18.45;;;22.60;77.20;;;;;;1844302;77;21136;-71
2021/12/12 01:22:25;;;;;;;24.55;18.20;;;22.70;77.10;;;;;;1865822;76;21185;-70
2021/12/12 01:24:56;;;;;;;22.87;18.65;;;22.70;76.90;;;;;;1857508;77;21491;-73
2021/12/12 01:27:27;;;;;;;22.20;16.90;;;22.70;76.70;;;;;;1856799;77;21134;-72
2021/12/12 01:29:58;;;;;;;22.82;17.75;;;22.70;76.80;;;;;;1858365;76;21723;-71
2021/12/12 01:32:32;;;;;;;21.25;15.83;;;22.80;76.80;;;;;;1832159;77;21179;-71
2021/12/12 01:35:06;;;;;;;23.07;16.25;;;22.80;76.30;;;;;;1865641;75;21610;-72
2021/12/12 01:37:39;;;;;;;21.42;15.80;;;22.90;75.90;;;;;;1871641;75;21111;-71
2021/12/12 01:40:10;;;;;;;23.85;15.72;;;23.00;75.90;;;;;;1855208;76;21075;-72
2021/12/12 01:42:43;;;;;;;24.27;16.77;;;23.00;75.50;;;;;;1861864;76;21142;-70
2021/12/12 01:45:17;;;;;;;21.42;16.45;;;23.10;74.40;;;;;;1869161;75;21115;-71
2021/12/12 01:47:50;;;;;;;25.30;17.02;;;23.10;74.50;;;;;;1877035;75;21671;-71
2021/12/12 01:50:23;;;;;;;21.90;16.10;;;23.10;74.50;;;;;;1858883;76;21729;-71
2021/12/12 01:52:57;;;;;;;23.67;15.68;;;23.20;73.90;;;;;;1855599;76;21140;-71
2021/12/12 01:55:30;;;;;;;21.07;15.08;;;23.30;73.80;;;;;;1888793;75;21240;-71
2021/12/12 01:58:03;;;;;;;23.47;15.98;;;23.30;73.50;;;;;;1854524;77;21622;-71
2021/12/12 02:00:37;;;;;;;19.42;14.75;;;23.40;73.40;;;;;;1869660;75;21071;-71
2021/12/12 02:03:11;;;;;;;25.48;16.23;;;23.40;72.80;;;;;;1855704;76;21201;-71
2021/12/12 02:05:43;;;;;;;23.05;17.05;;;23.50;72.60;;;;;;1869190;76;21547;-71
2021/12/12 02:08:16;;;;;;;22.13;16.85;;;23.50;71.90;;;;;;1858284;76;21135;-71
2021/12/12 02:10:49;;;;;;;21.87;15.40;;;23.50;72.20;;;;;;1878637;76;21047;-71
2021/12/12 02:13:23;;;;;;;21.15;15.53;;;23.50;72.50;;;;;;1863557;76;21059;-71
2021/12/12 02:15:56;;;;;;;23.50;15.23;;;23.50;72.40;;;;;;1869479;76;21059;-72
2021/12/12 02:18:33;;;;;;;18.52;14.83;;;23.50;71.90;;;;;;1855860;76;21152;-72
2021/12/12 02:21:08;;;;;;;20.43;14.50;;;23.60;71.90;;;;;;1868479;76;21625;-72
2021/12/12 02:36:24;;;;;;;27.90;14.83;;;23.80;70.70;;;;;;1827272;77;21134;-72
2021/12/12 02:38:56;;;;;;;21.12;15.40;;;23.90;71.10;;;;;;1850082;77;21654;-71
2021/12/12 02:41:28;;;;;;;19.75;14.47;;;23.90;70.90;;;;;;1865630;76;21096;-72
2021/12/12 02:44:01;;;;;;;17.75;13.68;;;24.00;71.00;;;;;;1858660;77;21556;-72
2021/12/12 02:46:36;;;;;;;21.23;13.22;;;24.10;70.60;;;;;;1873709;76;21093;-72
2021/12/12 02:49:23;;;;;;;18.70;13.78;;;24.00;70.60;;;;;;1852552;76;21160;-71
2021/12/12 02:51:43;;;;;;;19.77;14.38;;;24.10;71.60;;;;;;1830295;76;21212;-71
2021/12/12 02:54:14;;;;;;;18.17;14.07;;;24.20;70.60;;;;;;1863873;76;21212;-71
2021/12/12 02:56:47;;;;;;;17.05;13.50;;;24.30;70.00;;;;;;1858506;77;21640;-71
2021/12/12 02:59:20;;;;;;;21.00;14.07;;;24.30;69.70;;;;;;1858846;77;21203;-71
2021/12/12 03:01:54;;;;;;;19.30;13.38;;;24.30;69.70;;;;;;1860987;76;21951;-72
2021/12/12 03:04:27;;;;;;;16.57;13.53;;;24.40;69.40;;;;;;1850415;75;21641;-72
2021/12/12 03:06:59;;;;;;;19.60;13.00;;;24.40;69.50;;;;;;1814698;78;21681;-71
2021/12/12 03:09:33;;;;;;;14.47;11.97;;;24.50;69.40;;;;;;1815346;76;21686;-71
2021/12/12 03:12:06;;;;;;;17.52;12.82;;;24.60;69.00;;;;;;1853394;77;21135;-71
2021/12/12 03:14:38;;;;;;;17.92;12.00;;;24.70;69.20;;;;;;1840951;77;21657;-71
2021/12/12 03:17:11;;;;;;;14.45;9.38;;;24.70;68.70;;;;;;1849547;76;21552;-71
2021/12/12 03:19:44;;;;;;;17.62;8.78;;;24.90;66.60;;;;;;1846842;77;21620;-71
2021/12/12 03:22:16;;;;;;;12.60;8.83;;;25.00;66.00;;;;;;1846698;78;21604;-72
2021/12/12 03:24:47;;;;;;;15.98;8.10;;;25.10;65.40;;;;;;1831260;78;21090;-72
2021/12/12 03:27:20;;;;;;;11.50;8.20;;;25.20;64.90;;;;;;1847898;76;21193;-72
2021/12/12 03:29:52;;;;;;;10.63;7.90;;;25.30;64.90;;;;;;1869867;77;21157;-72
2021/12/12 03:32:24;;;;;;;10.88;7.45;;;25.50;64.40;;;;;;1845007;76;21174;-70
2021/12/12 03:34:58;;;;;;;13.40;7.50;;;25.60;64.30;;;;;;1858561;77;21195;-71
2021/12/12 03:37:31;;;;;;;10.08;6.90;;;25.70;63.90;;;;;;1843429;76;21092;-70
2021/12/12 03:40:04;;;;;;;12.10;7.62;;;25.80;64.00;;;;;;1849958;76;21159;-71
2021/12/12 03:42:35;;;;;;;11.55;7.47;;;25.80;63.00;;;;;;1835779;76;21213;-71
2021/12/12 03:45:07;;;;;;;9.25;7.60;;;25.90;63.20;;;;;;1844827;77;21119;-70
2021/12/12 03:47:40;;;;;;;12.05;8.53;;;25.90;63.10;;;;;;1844210;78;21083;-70
2021/12/12 03:50:14;;;;;;;12.88;7.70;;;26.00;62.90;;;;;;1839399;76;21067;-70
2021/12/12 03:52:46;;;;;;;13.10;7.53;;;26.10;62.70;;;;;;1843220;76;21200;-69
2021/12/12 03:55:19;;;;;;;10.75;8.20;;;26.20;62.40;;;;;;1844917;76;21654;-71
2021/12/12 03:57:50;;;;;;;11.08;7.22;;;26.20;62.40;;;;;;1843071;76;21185;-71
2021/12/12 04:00:24;;;;;;;11.93;8.13;;;26.20;62.30;;;;;;1853985;76;21128;-70
2021/12/12 04:02:55;;;;;;;10.72;7.03;;;26.20;62.60;;;;;;1871062;76;21080;-71
2021/12/12 04:05:26;;;;;;;9.88;7.50;;;26.30;61.90;;;;;;1847710;76;21174;-71
2021/12/12 04:07:57;;;;;;;10.93;7.50;;;26.50;62.10;;;;;;1859219;75;21617;-71
2021/12/12 04:10:28;;;;;;;10.80;7.28;;;26.60;62.10;;;;;;1859499;75;21162;-71
2021/12/12 04:13:00;;;;;;;12.73;8.05;;;26.70;61.80;;;;;;1859909;75;21196;-70
2021/12/12 04:15:31;;;;;;;10.53;7.05;;;26.70;61.40;;;;;;1859696;75;21146;-70
2021/12/12 04:18:02;;;;;;;14.13;7.75;;;26.90;61.40;;;;;;1861833;75;21181;-71
2021/12/12 04:20:36;;;;;;;13.55;8.33;;;27.00;60.70;;;;;;1854903;75;21150;-70
2021/12/12 04:23:09;;;;;;;11.93;7.60;;;27.10;60.00;;;;;;1859629;75;21173;-71
2021/12/12 04:25:40;;;;;;;10.85;7.45;;;27.20;59.80;;;;;;1858087;75;21192;-71
2021/12/12 04:28:10;;;;;;;9.88;6.85;;;27.30;59.70;;;;;;1869640;75;21134;-71
2021/12/12 04:30:41;;;;;;;11.83;7.20;;;27.40;59.80;;;;;;1877184;75;21100;-71
2021/12/12 04:33:14;;;;;;;12.00;7.67;;;27.40;59.60;;;;;;1860979;75;21637;-71
2021/12/12 04:35:45;;;;;;;11.83;6.90;;;27.40;60.10;;;;;;1860247;75;21082;-72
2021/12/12 04:38:16;;;;;;;10.72;7.08;;;27.50;59.70;;;;;;1863324;75;21110;-71
2021/12/12 04:40:46;;;;;;;10.03;6.70;;;27.60;59.50;;;;;;1855212;75;21122;-71
2021/12/12 04:43:17;;;;;;;8.85;6.55;;;27.70;59.30;;;;;;1859996;75;21616;-71
2021/12/12 04:45:57;;;;;;;9.75;6.58;;;27.70;59.20;;;;;;1895961;75;21714;-71
2021/12/12 04:50:59;;;;;;;10.28;6.50;;;27.90;58.70;;;;;;1856920;75;21238;-71
2021/12/12 04:53:33;;;;;;;10.43;6.78;;;27.90;59.50;;;;;;1863334;75;21767;-71
2021/12/12 04:56:06;;;;;;;14.60;7.42;;;28.10;58.90;;;;;;1854807;75;21676;-71
2021/12/12 04:58:40;;;;;;;12.85;7.80;;;28.20;58.20;;;;;;1854833;75;21511;-72
2021/12/12 05:01:14;;;;;;;14.18;7.83;;;28.30;57.80;;;;;;1855063;75;21157;-73
2021/12/12 05:03:47;;;;;;;10.55;7.35;;;28.40;57.80;;;;;;1859038;75;21087;-72
2021/12/12 05:06:19;;;;;;;13.32;6.55;;;28.60;59.10;;;;;;1851084;75;22313;-72
2021/12/12 05:08:53;;;;;;;12.30;6.40;;;28.70;57.40;;;;;;1846854;76;21197;-72
2021/12/12 05:11:26;;;;;;;9.40;5.90;;;28.80;57.00;;;;;;1874553;76;21120;-71
2021/12/12 05:14:03;;;;;;;8.83;6.12;;;28.90;56.60;;;;;;1843213;76;21216;-72
2021/12/12 05:16:34;;;;;;;11.53;6.37;;;28.90;56.50;;;;;;1845540;76;21159;-72
2021/12/12 05:19:07;;;;;;;10.30;5.85;;;29.00;56.40;;;;;;1853102;76;21618;-72
2021/12/12 05:21:41;;;;;;;9.45;5.90;;;29.00;55.90;;;;;;1853409;76;21558;-72
2021/12/12 05:24:13;;;;;;;9.68;6.37;;;29.10;56.30;;;;;;1854624;76;21679;-72
2021/12/12 05:26:47;;;;;;;8.38;5.85;;;29.20;56.40;;;;;;1848671;76;21151;-71
2021/12/12 05:29:17;;;;;;;9.78;5.83;;;29.20;56.50;;;;;;1865160;76;21140;-72
2021/12/12 05:31:49;;;;;;;7.80;5.25;;;29.20;55.90;;;;;;1877215;76;21663;-72
2021/12/12 05:34:23;;;;;;;11.60;5.70;;;29.20;55.80;;;;;;1862582;76;21125;-71
2021/12/12 05:36:56;;;;;;;8.45;5.25;;;29.30;56.20;;;;;;1820254;77;21089;-72
2021/12/12 05:39:27;;;;;;;7.53;5.40;;;29.40;56.30;;;;;;1818988;77;21659;-78
2021/12/12 05:41:59;;;;;;;8.25;4.90;;;29.40;55.80;;;;;;1822653;77;21193;-78
2021/12/12 05:44:32;;;;;;;8.48;5.05;;;29.50;56.00;;;;;;1826024;77;21165;-79
2021/12/12 05:47:05;;;;;;;8.33;4.78;;;29.60;56.00;;;;;;1830511;77;21624;-80
2021/12/12 05:49:37;;;;;;;6.60;4.67;;;29.60;55.50;;;;;;1823557;77;21125;-80
2021/12/12 05:52:10;;;;;;;9.73;4.90;;;29.60;55.30;;;;;;1834145;77;21048;-80
2021/12/12 05:54:42;;;;;;;6.75;4.92;;;29.60;55.40;;;;;;1853096;77;21199;-79
2021/12/12 05:57:16;;;;;;;9.38;5.10;;;29.50;55.20;;;;;;1811679;77;21219;-79
2021/12/12 05:59:47;;;;;;;5.40;4.58;;;29.50;55.60;;;;;;1830092;77;21112;-79
2021/12/12 06:02:18;;;;;;;7.90;5.95;;;29.60;55.20;;;;;;1819379;77;21656;-77
2021/12/12 06:04:50;;;;;;;7.58;4.80;;;29.60;55.90;;;;;;1843855;75;21101;-79
2021/12/12 06:07:22;;;;;;;6.58;4.50;;;29.60;55.10;;;;;;1847603;77;21217;-79
2021/12/12 06:09:53;;;;;;;5.97;4.25;;;29.60;55.50;;;;;;1820369;77;21650;-79
2021/12/12 06:12:24;;;;;;;8.35;4.72;;;29.60;55.60;;;;;;1822027;77;21066;-79
2021/12/12 06:14:56;;;;;;;8.00;5.10;;;29.70;55.30;;;;;;1819447;77;21203;-79
2021/12/12 06:17:28;;;;;;;8.80;5.08;;;29.60;55.60;;;;;;1818177;77;21625;-79
2021/12/12 06:20:01;;;;;;;9.70;5.47;;;29.70;55.50;;;;;;1831459;77;21258;-80
2021/12/12 06:22:32;;;;;;;5.78;4.40;;;29.70;55.60;;;;;;1859235;77;21108;-80
2021/12/12 06:25:05;;;;;;;7.90;4.72;;;29.80;55.10;;;;;;1835449;77;21172;-80
2021/12/12 06:27:36;;;;;;;11.73;6.40;;;29.80;54.60;;;;;;1822691;77;21190;-80
2021/12/12 06:30:13;;;;;;;7.15;5.10;;;29.80;54.60;;;;;;1815347;77;21694;-80
2021/12/12 06:32:43;;;;;;;11.05;4.72;;;29.80;55.50;;;;;;1818263;77;21093;-80
2021/12/12 06:35:15;;;;;;;8.05;5.15;;;29.80;55.90;;;;;;1818218;79;21144;-80
2021/12/12 06:37:47;;;;;;;10.50;4.83;;;29.90;55.40;;;;;;1811655;79;21137;-81
2021/12/12 06:40:20;;;;;;;7.03;4.78;;;29.90;55.30;;;;;;1817699;79;21219;-81
2021/12/12 06:42:53;;;;;;;7.15;4.65;;;29.90;54.80;;;;;;1818194;79;21085;-81
2021/12/12 06:45:24;;;;;;;6.37;3.98;;;29.90;54.70;;;;;;1818058;79;21101;-81
2021/12/12 06:47:57;;;;;;;10.68;4.40;;;29.90;54.50;;;;;;1794811;79;21144;-80
2021/12/12 06:50:29;;;;;;;7.25;4.33;;;29.90;54.90;;;;;;1788979;79;21254;-80
2021/12/12 06:53:01;;;;;;;7.78;4.22;;;29.90;54.70;;;;;;1788780;80;21155;-81
2021/12/12 06:55:34;;;;;;;10.03;5.12;;;29.90;54.40;;;;;;1788952;79;21184;-80
2021/12/12 06:58:07;;;;;;;8.03;4.45;;;29.90;55.10;;;;;;1792679;79;21077;-80
2021/12/12 07:00:38;;;;;;;6.12;3.70;;;29.90;54.90;;;;;;1799436;77;21242;-79
2021/12/12 07:03:09;;;;;;;4.47;3.67;;;29.90;54.60;;;;;;1825415;77;21225;-79
2021/12/12 07:05:41;;;;;;;8.40;4.10;;;29.90;54.40;;;;;;1821253;77;21120;-80
2021/12/12 07:08:12;;;;;;;6.78;3.85;;;29.90;54.60;;;;;;1827291;76;21618;-80
2021/12/12 07:10:45;;;;;;;7.20;4.30;;;29.90;54.20;;;;;;1847154;77;21536;-79
2021/12/12 07:13:17;;;;;;;7.78;3.95;;;29.90;54.30;;;;;;1834368;78;21187;-79
2021/12/12 07:15:50;;;;;;;8.65;3.92;;;29.90;54.30;;;;;;1834196;78;21167;-79
2021/12/12 07:18:24;;;;;;;7.20;5.22;;;29.90;54.80;;;;;;1853647;75;21140;-78
2021/12/12 07:20:57;;;;;;;6.12;3.80;;;29.90;54.70;;;;;;1856446;75;21154;-79
2021/12/12 07:23:28;;;;;;;9.40;4.28;;;29.90;54.50;;;;;;1837253;77;21651;-79
2021/12/12 07:26:01;;;;;;;7.17;4.35;;;29.90;55.00;;;;;;1859921;77;21567;-79
2021/12/12 07:28:33;;;;;;;7.45;3.95;;;29.90;54.70;;;;;;1865194;75;21540;-79
2021/12/12 07:31:06;;;;;;;8.40;4.37;;;29.80;55.00;;;;;;1872987;75;21658;-78
2021/12/12 07:33:38;;;;;;;7.90;4.35;;;29.70;55.10;;;;;;1859683;75;21221;-80
2021/12/12 07:36:11;;;;;;;6.28;3.83;;;29.60;55.40;;;;;;1836846;77;21126;-79
2021/12/12 07:38:45;;;;;;;7.35;3.95;;;29.60;55.60;;;;;;1836350;77;21139;-79
2021/12/12 07:41:18;;;;;;;8.65;4.60;;;29.70;55.70;;;;;;1834276;78;21163;-80
2021/12/12 07:43:50;;;;;;;10.20;3.98;;;29.70;56.00;;;;;;1834241;78;21567;-80
2021/12/12 07:46:22;;;;;;;7.08;4.33;;;29.70;55.80;;;;;;1848674;77;21156;-79
2021/12/12 07:48:55;;;;;;;7.05;4.60;;;29.60;55.60;;;;;;1834877;77;21238;-80
2021/12/12 07:51:27;;;;;;;6.50;4.80;;;29.50;55.90;;;;;;1853049;75;21595;-79
2021/12/12 07:54:01;;;;;;;8.33;4.72;;;29.40;56.10;;;;;;1864526;77;21230;-79
2021/12/12 07:56:34;;;;;;;5.58;4.22;;;29.30;56.40;;;;;;1887289;75;21607;-80
2021/12/12 07:59:08;;;;;;;6.78;4.28;;;29.10;56.60;;;;;;1872634;75;21073;-80
2021/12/12 08:01:41;;;;;;;9.30;4.87;;;29.10;56.60;;;;;;1841574;77;21505;-79
2021/12/12 08:04:14;;;;;;;7.62;4.85;;;29.10;56.60;;;;;;1834122;78;21233;-80
2021/12/12 08:06:45;;;;;;;10.93;6.60;;;29.20;56.30;;;;;;1853807;77;21076;-79
2021/12/12 08:09:17;;;;;;;15.48;9.08;;;29.40;56.80;;;;;;1835211;77;21164;-79
2021/12/12 08:11:48;;;;;;;13.10;8.50;;;29.40;56.60;;;;;;1857976;77;21151;-79
2021/12/12 08:14:22;;;;;;;12.13;7.95;;;29.40;56.60;;;;;;1856678;77;21164;-78
2021/12/12 08:16:54;;;;;;;12.23;6.30;;;29.50;56.50;;;;;;1824915;78;21220;-80
2021/12/12 08:19:27;;;;;;;7.42;5.05;;;29.50;56.10;;;;;;1825573;77;21184;-79
2021/12/12 08:22:01;;;;;;;10.00;4.87;;;29.40;56.20;;;;;;1815355;78;21215;-80
2021/12/12 08:24:34;;;;;;;8.10;5.40;;;29.40;56.60;;;;;;1836628;77;21156;-80
2021/12/12 08:27:07;;;;;;;8.65;5.53;;;29.40;56.60;;;;;;1833388;77;21050;-80
2021/12/12 08:29:38;;;;;;;7.85;4.85;;;29.40;56.60;;;;;;1846012;77;21193;-81
2021/12/12 08:32:12;;;;;;;8.15;5.67;;;29.40;56.40;;;;;;1832853;77;21246;-80
2021/12/12 08:34:44;;;;;;;8.35;5.58;;;29.40;56.60;;;;;;1828287;77;21169;-80
2021/12/12 08:37:15;;;;;;;10.82;4.95;;;29.40;56.50;;;;;;1858981;77;21140;-80
2021/12/12 08:39:47;;;;;;;7.00;4.47;;;29.40;57.20;;;;;;1848018;77;21155;-80
2021/12/12 08:42:26;;;;;;;9.18;5.25;;;29.40;56.20;;;;;;1838218;77;21127;-80
2021/12/12 08:44:56;;;;;;;12.13;5.87;;;29.40;56.50;;;;;;1830170;77;21605;-79
2021/12/12 08:47:27;;;;;;;9.90;5.15;;;29.40;56.10;;;;;;1838279;77;21137;-79
2021/12/12 08:49:59;;;;;;;12.65;5.60;;;29.40;56.20;;;;;;1830981;77;21136;-81
2021/12/12 08:52:36;;;;;;;11.95;5.58;;;29.30;56.30;;;;;;1833608;77;21144;-80
2021/12/12 08:55:07;;;;;;;10.32;5.67;;;29.20;56.50;;;;;;1831240;77;21176;-80
2021/12/12 08:57:47;;;;;;;8.95;6.03;;;29.10;56.50;;;;;;1834944;77;21607;-79
2021/12/12 09:00:17;;;;;;;12.47;6.42;;;29.00;56.50;;;;;;1827832;77;21108;-78
2021/12/12 09:02:49;;;;;;;13.62;5.62;;;29.00;56.90;;;;;;1834163;77;21128;-80
2021/12/12 09:05:22;;;;;;;8.75;5.53;;;29.00;56.60;;;;;;1830141;77;21117;-80
2021/12/12 09:07:57;;;;;;;9.55;5.58;;;29.00;56.50;;;;;;1827774;78;21133;-80
2021/12/12 09:10:30;;;;;;;9.98;5.65;;;28.90;56.80;;;;;;1830087;78;21165;-77
2021/12/12 09:13:04;;;;;;;14.55;6.10;;;28.90;56.90;;;;;;1861993;77;21165;-79
2021/12/12 09:15:36;;;;;;;8.88;5.78;;;28.90;57.00;;;;;;1859407;77;21078;-80
2021/12/12 09:18:09;;;;;;;7.47;5.70;;;28.80;57.00;;;;;;1817380;77;21168;-80
2021/12/12 09:20:53;;;;;;;8.20;5.78;;;28.80;57.10;;;;;;1810591;78;21985;-81
2021/12/12 09:23:17;;;;;;;8.98;5.60;;;28.80;57.40;;;;;;1832671;78;21137;-80
2021/12/12 09:25:52;;;;;;;8.93;5.47;;;28.80;57.40;;;;;;1822409;78;21616;-80
2021/12/12 09:28:25;;;;;;;10.45;7.20;;;28.70;57.50;;;;;;1802782;79;21164;-80
2021/12/12 09:30:57;;;;;;;12.25;6.70;;;28.70;57.70;;;;;;1795232;80;21152;-80
2021/12/12 09:33:31;;;;;;;10.35;6.20;;;28.70;57.80;;;;;;1809309;78;21706;-80
2021/12/12 09:36:05;;;;;;;11.57;6.28;;;28.60;58.00;;;;;;1807391;77;21169;-80
2021/12/12 09:38:36;;;;;;;9.48;5.47;;;28.60;58.00;;;;;;1810246;78;21490;-80
2021/12/12 09:41:09;;;;;;;14.58;6.22;;;28.60;57.90;;;;;;1844296;77;21153;-79
2021/12/12 09:43:42;;;;;;;12.00;6.83;;;28.50;58.00;;;;;;1845161;77;21219;-80
2021/12/12 09:46:18;;;;;;;9.68;4.87;;;28.40;58.20;;;;;;1837546;77;21169;-80
2021/12/12 09:51:21;;;;;;;8.53;4.90;;;28.30;58.40;;;;;;1817510;78;21177;-79
2021/12/12 09:53:54;;;;;;;8.20;5.40;;;28.20;58.60;;;;;;1830408;77;21137;-80
2021/12/12 09:56:26;;;;;;;8.60;5.42;;;28.20;58.70;;;;;;1805421;77;21180;-80
2021/12/12 09:58:59;;;;;;;12.37;6.03;;;28.20;59.00;;;;;;1830243;77;21070;-79
2021/12/12 10:01:32;;;;;;;9.63;5.80;;;28.20;59.20;;;;;;1827587;77;21097;-80
2021/12/12 10:04:08;;;;;;;10.75;5.10;;;28.10;59.30;;;;;;1833656;77;21129;-80
2021/12/12 10:06:42;;;;;;;10.03;5.17;;;28.10;59.30;;;;;;1833999;77;21098;-80
2021/12/12 10:09:15;;;;;;;12.70;6.10;;;28.10;59.30;;;;;;1853572;75;21163;-80
2021/12/12 10:11:48;;;;;;;11.75;5.25;;;28.00;59.30;;;;;;1874735;75;21334;-80
2021/12/12 10:14:19;;;;;;;9.10;5.70;;;28.00;59.40;;;;;;1875022;75;21250;-79
2021/12/12 10:16:54;;;;;;;10.93;5.42;;;28.00;59.60;;;;;;1863502;76;21178;-79
2021/12/12 10:19:27;;;;;;;8.28;5.90;;;27.90;59.60;;;;;;1876434;75;21721;-80
2021/12/12 10:21:59;;;;;;;10.08;5.72;;;27.90;59.60;;;;;;1868498;76;21151;-80
2021/12/12 10:24:32;;;;;;;9.75;6.40;;;27.90;59.70;;;;;;1866447;76;21136;-80
2021/12/12 10:27:03;;;;;;;11.00;6.47;;;27.90;60.00;;;;;;1867812;76;21241;-80
2021/12/12 10:29:36;;;;;;;8.80;6.50;;;27.90;60.10;;;;;;1863008;76;21203;-80
2021/12/12 10:32:09;;;;;;;14.80;6.83;;;27.80;60.20;;;;;;1864915;76;21164;-80
2021/12/12 10:34:45;;;;;;;10.93;7.37;;;27.80;60.20;;;;;;1859401;76;21133;-80
2021/12/12 10:37:19;;;;;;;16.60;8.20;;;27.80;60.50;;;;;;1862162;76;21720;-79
2021/12/12 10:39:58;;;;;;;14.13;8.15;;;27.70;60.60;;;;;;1860805;76;21213;-79
2021/12/12 10:42:37;;;;;;;13.38;9.10;;;27.70;60.90;;;;;;1861114;76;21647;-80
2021/12/12 10:45:10;;;;;;;13.75;9.68;;;27.70;61.00;;;;;;1853147;76;21158;-80
2021/12/12 10:47:43;;;;;;;15.70;9.48;;;27.70;61.30;;;;;;1852145;76;21655;-80
2021/12/12 10:50:16;;;;;;;10.32;7.60;;;27.60;61.30;;;;;;1859162;76;21088;-80
2021/12/12 10:52:51;;;;;;;13.03;7.45;;;27.60;61.20;;;;;;1816998;79;21206;-79
2021/12/12 10:55:25;;;;;;;11.70;7.60;;;27.60;61.30;;;;;;1816768;79;21334;-80
2021/12/12 10:57:59;;;;;;;11.68;7.60;;;27.60;61.60;;;;;;1832337;77;21229;-80
2021/12/12 11:00:32;;;;;;;16.07;7.30;;;27.50;61.60;;;;;;1818734;78;21112;-80
2021/12/12 11:03:04;;;;;;;9.33;6.58;;;27.50;61.60;;;;;;1844877;77;21097;-78
2021/12/12 11:05:38;;;;;;;10.95;6.80;;;27.50;61.60;;;;;;1838972;77;21630;-79
2021/12/12 11:08:11;;;;;;;11.05;6.87;;;27.50;61.80;;;;;;1857728;77;21088;-79
2021/12/12 11:10:47;;;;;;;10.70;6.60;;;27.50;61.90;;;;;;1817579;79;21641;-78
2021/12/12 11:13:20;;;;;;;11.85;7.72;;;27.50;61.90;;;;;;1843140;76;21132;-79
2021/12/12 11:15:55;;;;;;;11.90;7.47;;;27.40;62.00;;;;;;1822043;79;21249;-79
2021/12/12 11:18:33;;;;;;;12.68;8.55;;;27.40;62.20;;;;;;1825624;78;21732;-79
2021/12/12 11:21:06;;;;;;;12.45;7.92;;;27.40;62.20;;;;;;1823927;77;21554;-79
2021/12/12 11:23:39;;;;;;;12.93;8.98;;;27.40;62.40;;;;;;1850494;77;21674;-79
2021/12/12 11:26:11;;;;;;;13.25;8.73;;;27.40;62.40;;;;;;1864829;76;21172;-80
2021/12/12 11:29:01;;;;;;;22.70;9.15;;;27.30;62.40;;;;;;1862243;76;21151;-80
2021/12/12 11:31:35;;;;;;;16.85;9.73;;;27.30;62.50;;;;;;1809565;79;21181;-79
2021/12/12 11:34:08;;;;;;;16.87;10.25;;;27.30;62.60;;;;;;1845344;77;21097;-79
2021/12/12 11:36:41;;;;;;;18.70;10.58;;;27.30;62.90;;;;;;1830330;76;21589;-79
2021/12/12 11:39:15;;;;;;;17.60;10.95;;;27.30;63.00;;;;;;1855911;76;21160;-79
2021/12/12 11:41:48;;;;;;;17.05;11.70;;;27.30;63.30;;;;;;1840960;78;21148;-79
2021/12/12 11:44:37;;;;;;;19.57;12.73;;;27.30;63.60;;;;;;1844847;76;21154;-79
2021/12/12 11:47:09;;;;;;;17.05;12.40;;;27.20;63.80;;;;;;1937789;73;21181;-79
2021/12/12 11:49:43;;;;;;;18.75;12.35;;;27.20;64.10;;;;;;1936024;73;21130;-79
2021/12/12 11:52:16;;;;;;;17.67;11.70;;;27.20;64.10;;;;;;1912961;74;21107;-79
2021/12/12 11:54:50;;;;;;;21.52;12.93;;;27.10;64.20;;;;;;1916815;75;21090;-79
2021/12/12 11:57:23;;;;;;;21.70;11.88;;;27.10;64.40;;;;;;1916233;73;21146;-79
2021/12/12 11:59:58;;;;;;;22.45;12.68;;;27.10;64.60;;;;;;1927053;73;21127;-78
2021/12/12 12:02:31;;;;;;;19.75;11.75;;;27.00;64.90;;;;;;1923865;73;21080;-80
2021/12/12 12:05:02;;;;;;;23.77;13.55;;;27.00;65.00;;;;;;1923222;73;21048;-79
2021/12/12 12:07:36;;;;;;;20.68;12.90;;;27.00;65.10;;;;;;1913911;75;21204;-80
2021/12/12 12:10:08;;;;;;;42.55;26.23;;;27.00;65.20;;;;;;1913116;75;21495;-80
2021/12/12 12:12:42;;;;;;;25.77;16.57;;;27.00;65.30;;;;;;1907554;75;21185;-79
2021/12/12 12:15:13;;;;;;;22.67;14.68;;;26.90;65.30;;;;;;1911680;75;21080;-79
2021/12/12 12:17:45;;;;;;;25.00;16.87;;;26.90;65.40;;;;;;1921503;73;21124;-79
2021/12/12 12:20:18;;;;;;;21.68;16.12;;;26.90;65.50;;;;;;1945083;73;21110;-79
2021/12/12 12:22:51;;;;;;;21.73;15.23;;;26.80;65.50;;;;;;1911340;75;21126;-79
2021/12/12 12:25:25;;;;;;;31.33;18.40;;;26.90;65.80;;;;;;1910693;73;21155;-79
2021/12/12 12:27:58;;;;;;;23.52;17.17;;;26.80;65.80;;;;;;1904513;75;21142;-80
2021/12/12 12:30:31;;;;;;;22.75;16.37;;;26.80;65.80;;;;;;1911423;75;21106;-80
2021/12/12 12:33:04;;;;;;;23.40;16.62;;;26.80;65.90;;;;;;1911202;73;21051;-79
2021/12/12 12:35:36;;;;;;;23.47;14.90;;;26.80;66.10;;;;;;1887559;75;21668;-79
2021/12/12 12:38:09;;;;;;;21.02;12.88;;;26.70;66.10;;;;;;1913920;73;21059;-79
2021/12/12 12:40:43;;;;;;;21.48;14.03;;;26.70;66.30;;;;;;1905888;73;21126;-80
2021/12/12 12:43:16;;;;;;;21.93;14.47;;;26.70;66.40;;;;;;1910615;74;21120;-79
2021/12/12 12:45:49;;;;;;;19.02;13.10;;;26.70;66.60;;;;;;1906781;74;21197;-80
2021/12/12 12:48:23;;;;;;;20.88;13.62;;;26.70;66.60;;;;;;1903508;74;21103;-78
2021/12/12 12:50:56;;;;;;;22.02;13.32;;;26.70;66.50;;;;;;1905428;75;21192;-78
2021/12/12 12:53:29;;;;;;;19.25;13.70;;;26.70;66.70;;;;;;1904552;74;21180;-79
2021/12/12 12:56:02;;;;;;;18.75;13.50;;;26.60;66.80;;;;;;1903306;75;21220;-79
2021/12/12 12:58:32;;;;;;;21.42;13.55;;;26.60;67.00;;;;;;1903010;74;21150;-79
2021/12/12 13:01:05;;;;;;;21.42;13.28;;;26.60;67.10;;;;;;1905586;75;21099;-78
2021/12/12 13:03:37;;;;;;;18.70;13.48;;;26.60;67.20;;;;;;1906338;73;21149;-79
2021/12/12 13:06:08;;;;;;;20.12;13.30;;;26.50;67.20;;;;;;1903109;74;21217;-79
2021/12/12 13:08:42;;;;;;;22.93;17.27;;;26.60;67.60;;;;;;1904602;74;21154;-78
2021/12/12 13:11:15;;;;;;;21.02;13.75;;;26.50;67.80;;;;;;1901521;74;21074;-79
2021/12/12 13:13:47;;;;;;;20.08;13.72;;;26.50;67.80;;;;;;1906934;75;21056;-78
2021/12/12 13:16:21;;;;;;;22.10;14.87;;;26.50;67.80;;;;;;1907239;75;21173;-78
2021/12/12 13:18:54;;;;;;;21.73;15.08;;;26.50;67.90;;;;;;1904278;75;21567;-79
2021/12/12 13:21:28;;;;;;;22.98;15.05;;;26.50;68.20;;;;;;1903688;75;21062;-79